sensor_id;sensor_type;location;lat;lon;timestamp;pressure;altitude;pressure_sealevel;temperature;humidity
26635;BME280;14490;54.208;37.686;2022-07-24T00:02:25;98929.03;;;19.48;95.84
26635;BME280;14490;54.208;37.686;2022-07-24T00:04:52;98840.19;;;19.03;95.57
26635;BME280;14490;54.208;37.686;2022-07-24T00:07:22;98916.66;;;19.52;95.61
26635;BME280;14490;54.208;37.686;2022-07-24T00:09:51;98914.78;;;19.52;95.45
26635;BME280;14490;54.208;37.686;2022-07-24T00:12:19;98822.53;;;18.99;95.26
26635;BME280;14490;54.208;37.686;2022-07-24T00:14:46;98913.75;;;19.53;95.57
26635;BME280;14490;54.208;37.686;2022-07-24T00:17:14;98888.88;;;19.42;95.46
26635;BME280;14490;54.208;37.686;2022-07-24T00:19:42;98900.25;;;19.45;95.70
26635;BME280;14490;54.208;37.686;2022-07-24T00:22:09;98918.56;;;19.51;95.50
26635;BME280;14490;54.208;37.686;2022-07-24T00:24:37;98915.84;;;19.51;95.57
26635;BME280;14490;54.208;37.686;2022-07-24T00:27:07;98811.09;;;18.89;95.43
26635;BME280;14490;54.208;37.686;2022-07-24T00:29:34;98891.50;;;19.35;95.54
26635;BME280;14490;54.208;37.686;2022-07-24T00:32:02;98864.88;;;19.16;95.48
26635;BME280;14490;54.208;37.686;2022-07-24T00:34:31;98911.16;;;19.45;95.39
26635;BME280;14490;54.208;37.686;2022-07-24T00:36:58;98914.28;;;19.42;95.48
26635;BME280;14490;54.208;37.686;2022-07-24T00:39:26;98759.91;;;18.48;95.39
26635;BME280;14490;54.208;37.686;2022-07-24T00:41:54;98915.66;;;19.38;95.67
26635;BME280;14490;54.208;37.686;2022-07-24T00:44:23;98842.00;;;18.96;95.59
26635;BME280;14490;54.208;37.686;2022-07-24T00:46:51;98868.69;;;19.00;95.82
26635;BME280;14490;54.208;37.686;2022-07-24T00:49:20;98810.16;;;18.61;96.02
26635;BME280;14490;54.208;37.686;2022-07-24T00:51:49;98801.72;;;18.55;95.93
26635;BME280;14490;54.208;37.686;2022-07-24T00:54:20;98875.84;;;19.01;95.85
26635;BME280;14490;54.208;37.686;2022-07-24T00:56:50;98918.00;;;19.20;96.11
26635;BME280;14490;54.208;37.686;2022-07-24T00:59:19;98917.53;;;19.17;96.35
26635;BME280;14490;54.208;37.686;2022-07-24T01:01:49;98921.75;;;19.19;96.23
26635;BME280;14490;54.208;37.686;2022-07-24T01:04:18;98919.25;;;19.18;96.24
26635;BME280;14490;54.208;37.686;2022-07-24T01:06:47;98809.34;;;18.45;96.27
26635;BME280;14490;54.208;37.686;2022-07-24T01:09:15;98917.06;;;19.13;96.65
26635;BME280;14490;54.208;37.686;2022-07-24T01:11:44;98910.13;;;19.10;96.65
26635;BME280;14490;54.208;37.686;2022-07-24T01:14:12;98920.88;;;18.97;97.30
26635;BME280;14490;54.208;37.686;2022-07-24T01:16:41;98878.09;;;18.77;97.54
26635;BME280;14490;54.208;37.686;2022-07-24T01:19:10;98915.25;;;18.99;97.42
26635;BME280;14490;54.208;37.686;2022-07-24T01:21:45;98915.25;;;18.99;97.45
26635;BME280;14490;54.208;37.686;2022-07-24T01:24:13;98899.00;;;18.91;97.39
26635;BME280;14490;54.208;37.686;2022-07-24T01:26:40;98921.09;;;18.96;97.39
26635;BME280;14490;54.208;37.686;2022-07-24T01:29:08;98921.75;;;18.98;97.32
26635;BME280;14490;54.208;37.686;2022-07-24T01:31:36;98904.66;;;18.89;97.26
26635;BME280;14490;54.208;37.686;2022-07-24T01:34:04;98891.59;;;18.85;97.29
26635;BME280;14490;54.208;37.686;2022-07-24T01:36:32;98906.41;;;18.97;97.39
26635;BME280;14490;54.208;37.686;2022-07-24T01:39:02;98923.22;;;19.00;97.44
26635;BME280;14490;54.208;37.686;2022-07-24T01:41:30;98888.22;;;18.83;97.56
26635;BME280;14490;54.208;37.686;2022-07-24T01:43:58;98929.91;;;18.98;97.48
26635;BME280;14490;54.208;37.686;2022-07-24T01:46:26;98905.34;;;18.77;97.55
26635;BME280;14490;54.208;37.686;2022-07-24T01:48:54;98915.88;;;18.80;97.79
26635;BME280;14490;54.208;37.686;2022-07-24T01:51:21;98921.56;;;18.85;97.96
26635;BME280;14490;54.208;37.686;2022-07-24T01:53:49;98920.38;;;18.73;98.01
26635;BME280;14490;54.208;37.686;2022-07-24T01:56:18;98856.53;;;18.31;98.16
26635;BME280;14490;54.208;37.686;2022-07-24T01:58:46;98918.16;;;18.62;98.44
26635;BME280;14490;54.208;37.686;2022-07-24T02:01:14;98924.16;;;18.72;98.23
26635;BME280;14490;54.208;37.686;2022-07-24T02:03:42;98925.31;;;18.63;98.44
26635;BME280;14490;54.208;37.686;2022-07-24T02:06:09;98930.84;;;18.69;98.58
26635;BME280;14490;54.208;37.686;2022-07-24T02:08:37;98856.16;;;18.34;98.25
26635;BME280;14490;54.208;37.686;2022-07-24T02:11:05;98918.72;;;18.72;98.03
26635;BME280;14490;54.208;37.686;2022-07-24T02:13:34;98922.63;;;18.84;97.90
26635;BME280;14490;54.208;37.686;2022-07-24T02:16:02;98812.00;;;18.24;97.57
26635;BME280;14490;54.208;37.686;2022-07-24T02:18:30;98850.53;;;18.50;97.42
26635;BME280;14490;54.208;37.686;2022-07-24T02:20:57;98895.38;;;18.84;97.41
26635;BME280;14490;54.208;37.686;2022-07-24T02:23:25;98918.63;;;19.01;97.09
26635;BME280;14490;54.208;37.686;2022-07-24T02:25:53;98922.06;;;19.09;96.91
26635;BME280;14490;54.208;37.686;2022-07-24T02:28:21;98923.00;;;19.17;96.29
26635;BME280;14490;54.208;37.686;2022-07-24T02:30:50;98928.91;;;19.20;96.31
26635;BME280;14490;54.208;37.686;2022-07-24T02:33:18;98923.16;;;19.30;95.85
26635;BME280;14490;54.208;37.686;2022-07-24T02:35:45;98927.81;;;19.36;95.57
26635;BME280;14490;54.208;37.686;2022-07-24T02:38:13;98927.06;;;19.42;95.17
26635;BME280;14490;54.208;37.686;2022-07-24T02:40:41;98898.28;;;19.39;94.78
26635;BME280;14490;54.208;37.686;2022-07-24T02:43:08;98891.78;;;19.40;94.69
26635;BME280;14490;54.208;37.686;2022-07-24T02:45:36;98885.47;;;19.40;94.41
26635;BME280;14490;54.208;37.686;2022-07-24T02:48:06;98906.41;;;19.54;94.16
26635;BME280;14490;54.208;37.686;2022-07-24T02:50:34;98907.88;;;19.56;93.94
26635;BME280;14490;54.208;37.686;2022-07-24T02:53:04;98894.41;;;19.55;93.73
26635;BME280;14490;54.208;37.686;2022-07-24T02:55:32;98917.69;;;19.72;93.62
26635;BME280;14490;54.208;37.686;2022-07-24T02:58:00;98916.84;;;19.72;93.17
26635;BME280;14490;54.208;37.686;2022-07-24T03:00:27;98916.69;;;19.80;92.92
26635;BME280;14490;54.208;37.686;2022-07-24T03:02:55;98919.47;;;19.86;92.91
26635;BME280;14490;54.208;37.686;2022-07-24T03:05:25;98934.59;;;19.89;92.54
26635;BME280;14490;54.208;37.686;2022-07-24T03:07:52;98853.25;;;19.50;92.27
26635;BME280;14490;54.208;37.686;2022-07-24T03:10:20;98897.44;;;19.88;92.13
26635;BME280;14490;54.208;37.686;2022-07-24T03:12:48;98909.50;;;20.00;91.88
26635;BME280;14490;54.208;37.686;2022-07-24T03:15:16;98918.50;;;20.00;91.79
26635;BME280;14490;54.208;37.686;2022-07-24T03:17:50;98843.22;;;19.57;91.68
26635;BME280;14490;54.208;37.686;2022-07-24T03:20:21;98910.38;;;20.07;91.64
26635;BME280;14490;54.208;37.686;2022-07-24T03:22:51;98903.88;;;20.08;91.42
26635;BME280;14490;54.208;37.686;2022-07-24T03:25:19;98904.94;;;20.13;91.39
26635;BME280;14490;54.208;37.686;2022-07-24T03:27:47;98904.94;;;20.13;91.15
26635;BME280;14490;54.208;37.686;2022-07-24T03:30:15;98904.94;;;20.13;90.96
26635;BME280;14490;54.208;37.686;2022-07-24T03:32:43;98858.31;;;19.81;90.91
26635;BME280;14490;54.208;37.686;2022-07-24T03:35:11;98896.44;;;19.95;91.08
26635;BME280;14490;54.208;37.686;2022-07-24T03:37:40;98707.50;;;18.89;90.95
26635;BME280;14490;54.208;37.686;2022-07-24T03:40:10;98893.56;;;20.10;90.83
26635;BME280;14490;54.208;37.686;2022-07-24T03:42:38;98909.69;;;20.26;90.58
26635;BME280;14490;54.208;37.686;2022-07-24T03:45:07;98905.41;;;20.17;90.68
26635;BME280;14490;54.208;37.686;2022-07-24T03:47:36;98874.53;;;19.89;90.78
26635;BME280;14490;54.208;37.686;2022-07-24T03:50:04;98784.78;;;19.45;90.92
26635;BME280;14490;54.208;37.686;2022-07-24T03:52:32;98900.78;;;20.17;90.68
26635;BME280;14490;54.208;37.686;2022-07-24T03:55:00;98892.59;;;20.17;90.52
26635;BME280;14490;54.208;37.686;2022-07-24T03:57:29;98913.81;;;20.22;90.49
26635;BME280;14490;54.208;37.686;2022-07-24T03:59:56;98923.09;;;20.21;90.43
26635;BME280;14490;54.208;37.686;2022-07-24T04:02:24;98862.72;;;19.82;90.53
26635;BME280;14490;54.208;37.686;2022-07-24T04:04:52;98906.44;;;20.16;90.60
26635;BME280;14490;54.208;37.686;2022-07-24T04:07:20;98910.13;;;20.30;90.45
26635;BME280;14490;54.208;37.686;2022-07-24T04:09:47;98882.81;;;20.30;89.96
26635;BME280;14490;54.208;37.686;2022-07-24T04:12:15;98912.38;;;20.54;89.64
26635;BME280;14490;54.208;37.686;2022-07-24T04:14:47;98863.50;;;20.38;89.24
26635;BME280;14490;54.208;37.686;2022-07-24T04:17:14;98870.69;;;20.45;88.95
26635;BME280;14490;54.208;37.686;2022-07-24T04:19:42;98886.72;;;20.61;88.75
26635;BME280;14490;54.208;37.686;2022-07-24T04:22:10;98910.81;;;20.86;88.48
26635;BME280;14490;54.208;37.686;2022-07-24T04:24:37;98900.75;;;20.93;88.08
26635;BME280;14490;54.208;37.686;2022-07-24T04:27:05;98825.91;;;20.46;87.73
26635;BME280;14490;54.208;37.686;2022-07-24T04:29:33;98843.84;;;20.68;87.70
26635;BME280;14490;54.208;37.686;2022-07-24T04:32:02;98829.97;;;20.63;87.12
26635;BME280;14490;54.208;37.686;2022-07-24T04:34:30;98897.03;;;21.13;87.17
26635;BME280;14490;54.208;37.686;2022-07-24T04:36:57;98915.38;;;21.26;86.73
26635;BME280;14490;54.208;37.686;2022-07-24T04:39:25;98914.97;;;21.29;86.58
26635;BME280;14490;54.208;37.686;2022-07-24T04:41:53;98918.56;;;21.30;86.70
26635;BME280;14490;54.208;37.686;2022-07-24T04:44:21;98891.13;;;21.10;86.25
26635;BME280;14490;54.208;37.686;2022-07-24T04:46:49;98917.94;;;21.28;86.02
26635;BME280;14490;54.208;37.686;2022-07-24T04:49:18;98909.28;;;21.37;85.99
26635;BME280;14490;54.208;37.686;2022-07-24T04:51:46;98879.38;;;21.22;85.84
26635;BME280;14490;54.208;37.686;2022-07-24T04:54:13;98897.91;;;21.40;85.87
26635;BME280;14490;54.208;37.686;2022-07-24T04:56:41;98896.03;;;21.47;85.51
26635;BME280;14490;54.208;37.686;2022-07-24T04:59:08;98822.09;;;21.14;85.27
26635;BME280;14490;54.208;37.686;2022-07-24T05:01:36;98922.59;;;21.79;85.30
26635;BME280;14490;54.208;37.686;2022-07-24T05:04:04;98913.31;;;21.87;85.20
26635;BME280;14490;54.208;37.686;2022-07-24T05:06:33;98913.56;;;21.92;85.24
26635;BME280;14490;54.208;37.686;2022-07-24T05:09:02;98889.13;;;21.91;85.18
26635;BME280;14490;54.208;37.686;2022-07-24T05:11:30;98907.44;;;22.10;84.84
26635;BME280;14490;54.208;37.686;2022-07-24T05:13:58;98905.56;;;22.04;84.78
26635;BME280;14490;54.208;37.686;2022-07-24T05:16:26;98871.00;;;21.90;85.03
26635;BME280;14490;54.208;37.686;2022-07-24T05:18:53;98897.53;;;22.15;84.98
26635;BME280;14490;54.208;37.686;2022-07-24T05:21:21;98894.56;;;22.10;84.77
26635;BME280;14490;54.208;37.686;2022-07-24T05:23:51;98904.66;;;22.23;84.72
26635;BME280;14490;54.208;37.686;2022-07-24T05:26:18;98893.69;;;22.23;84.60
26635;BME280;14490;54.208;37.686;2022-07-24T05:28:46;98899.13;;;22.49;84.11
26635;BME280;14490;54.208;37.686;2022-07-24T05:31:14;98814.03;;;22.11;84.01
26635;BME280;14490;54.208;37.686;2022-07-24T05:33:42;98912.59;;;22.70;83.67
26635;BME280;14490;54.208;37.686;2022-07-24T05:36:10;98900.69;;;22.83;83.21
26635;BME280;14490;54.208;37.686;2022-07-24T05:38:38;98862.34;;;22.63;82.84
26635;BME280;14490;54.208;37.686;2022-07-24T05:41:07;98867.31;;;22.86;82.63
26635;BME280;14490;54.208;37.686;2022-07-24T05:43:35;98897.59;;;23.11;82.19
26635;BME280;14490;54.208;37.686;2022-07-24T05:46:04;98890.78;;;23.20;81.68
26635;BME280;14490;54.208;37.686;2022-07-24T05:48:32;98791.03;;;22.63;81.14
26635;BME280;14490;54.208;37.686;2022-07-24T05:51:00;98868.56;;;23.28;81.17
26635;BME280;14490;54.208;37.686;2022-07-24T05:53:28;98895.22;;;23.59;80.77
26635;BME280;14490;54.208;37.686;2022-07-24T05:55:56;98861.94;;;23.35;79.75
26635;BME280;14490;54.208;37.686;2022-07-24T05:58:25;98796.28;;;23.09;79.49
26635;BME280;14490;54.208;37.686;2022-07-24T06:00:53;98884.09;;;23.72;78.85
26635;BME280;14490;54.208;37.686;2022-07-24T06:03:21;98895.59;;;23.87;78.21
26635;BME280;14490;54.208;37.686;2022-07-24T06:05:48;98831.44;;;23.50;77.71
26635;BME280;14490;54.208;37.686;2022-07-24T06:08:16;98880.09;;;23.92;77.67
26635;BME280;14490;54.208;37.686;2022-07-24T06:10:44;98883.88;;;23.98;77.67
26635;BME280;14490;54.208;37.686;2022-07-24T06:13:12;98881.69;;;24.07;77.76
26635;BME280;14490;54.208;37.686;2022-07-24T06:15:41;98878.06;;;24.13;77.32
26635;BME280;14490;54.208;37.686;2022-07-24T06:18:09;98865.16;;;24.13;76.96
26635;BME280;14490;54.208;37.686;2022-07-24T06:20:36;98863.16;;;24.20;76.66
26635;BME280;14490;54.208;37.686;2022-07-24T06:23:04;98798.72;;;23.91;76.35
26635;BME280;14490;54.208;37.686;2022-07-24T06:25:32;98862.75;;;24.35;76.41
26635;BME280;14490;54.208;37.686;2022-07-24T06:28:00;98871.47;;;24.50;75.68
26635;BME280;14490;54.208;37.686;2022-07-24T06:30:28;98855.81;;;24.51;73.73
26635;BME280;14490;54.208;37.686;2022-07-24T06:32:58;98853.97;;;24.63;72.94
26635;BME280;14490;54.208;37.686;2022-07-24T06:35:27;98869.00;;;24.78;72.11
26635;BME280;14490;54.208;37.686;2022-07-24T06:37:58;98848.91;;;24.78;71.75
26635;BME280;14490;54.208;37.686;2022-07-24T06:40:26;98735.50;;;24.10;71.23
26635;BME280;14490;54.208;37.686;2022-07-24T06:42:55;98870.13;;;24.95;70.63
26635;BME280;14490;54.208;37.686;2022-07-24T06:45:23;98867.97;;;24.97;69.58
26635;BME280;14490;54.208;37.686;2022-07-24T06:47:51;98863.22;;;25.05;69.44
26635;BME280;14490;54.208;37.686;2022-07-24T06:50:20;98836.13;;;25.02;69.29
26635;BME280;14490;54.208;37.686;2022-07-24T06:52:48;98780.34;;;24.76;69.46
26635;BME280;14490;54.208;37.686;2022-07-24T06:55:16;98673.66;;;24.19;69.03
26635;BME280;14490;54.208;37.686;2022-07-24T06:57:43;98857.78;;;25.28;68.67
26635;BME280;14490;54.208;37.686;2022-07-24T07:00:12;98850.00;;;25.36;68.25
26635;BME280;14490;54.208;37.686;2022-07-24T07:02:40;98844.59;;;25.41;67.98
26635;BME280;14490;54.208;37.686;2022-07-24T07:05:08;98849.44;;;25.46;67.43
26635;BME280;14490;54.208;37.686;2022-07-24T07:07:38;98837.50;;;25.52;67.55
26635;BME280;14490;54.208;37.686;2022-07-24T07:10:08;98848.63;;;25.57;67.40
26635;BME280;14490;54.208;37.686;2022-07-24T07:12:36;98821.88;;;25.46;66.91
26635;BME280;14490;54.208;37.686;2022-07-24T07:15:05;98827.69;;;25.56;66.25
26635;BME280;14490;54.208;37.686;2022-07-24T07:17:33;98727.66;;;25.02;65.92
26635;BME280;14490;54.208;37.686;2022-07-24T07:20:01;98843.38;;;25.79;65.24
26635;BME280;14490;54.208;37.686;2022-07-24T07:22:29;98836.06;;;25.84;64.34
26635;BME280;14490;54.208;37.686;2022-07-24T07:24:58;98831.53;;;25.90;64.10
26635;BME280;14490;54.208;37.686;2022-07-24T07:27:25;98823.88;;;25.80;63.30
26635;BME280;14490;54.208;37.686;2022-07-24T07:29:53;98825.78;;;25.91;63.21
26635;BME280;14490;54.208;37.686;2022-07-24T07:32:21;98824.72;;;25.92;62.25
26635;BME280;14490;54.208;37.686;2022-07-24T07:34:49;98751.47;;;25.50;62.15
26635;BME280;14490;54.208;37.686;2022-07-24T07:37:16;98832.50;;;26.07;61.17
26635;BME280;14490;54.208;37.686;2022-07-24T07:39:44;98823.25;;;26.01;60.32
26635;BME280;14490;54.208;37.686;2022-07-24T07:42:13;98746.19;;;25.60;60.92
26635;BME280;14490;54.208;37.686;2022-07-24T07:44:41;98836.69;;;26.21;61.66
26635;BME280;14490;54.208;37.686;2022-07-24T07:47:09;98745.94;;;25.73;61.85
26635;BME280;14490;54.208;37.686;2022-07-24T07:49:37;98835.00;;;26.32;61.33
26635;BME280;14490;54.208;37.686;2022-07-24T07:52:05;98836.91;;;26.43;60.91
26635;BME280;14490;54.208;37.686;2022-07-24T07:54:33;98685.56;;;25.60;60.61
26635;BME280;14490;54.208;37.686;2022-07-24T07:57:00;98751.19;;;26.09;60.04
26635;BME280;14490;54.208;37.686;2022-07-24T07:59:30;98838.91;;;26.59;59.06
26635;BME280;14490;54.208;37.686;2022-07-24T08:01:57;98831.97;;;26.56;58.61
26635;BME280;14490;54.208;37.686;2022-07-24T08:04:25;98806.28;;;26.56;59.02
26635;BME280;14490;54.208;37.686;2022-07-24T08:06:53;98833.56;;;26.69;59.02
26635;BME280;14490;54.208;37.686;2022-07-24T08:09:21;98710.88;;;26.08;59.08
26635;BME280;14490;54.208;37.686;2022-07-24T08:11:48;98810.50;;;26.75;58.46
26635;BME280;14490;54.208;37.686;2022-07-24T08:14:16;98699.97;;;26.14;58.19
26635;BME280;14490;54.208;37.686;2022-07-24T08:16:46;98811.94;;;26.89;58.56
26635;BME280;14490;54.208;37.686;2022-07-24T08:19:13;98815.00;;;27.04;57.84
26635;BME280;14490;54.208;37.686;2022-07-24T08:21:41;98800.09;;;27.05;57.54
26635;BME280;14490;54.208;37.686;2022-07-24T08:24:11;98813.53;;;27.30;57.34
26635;BME280;14490;54.208;37.686;2022-07-24T08:26:38;98694.38;;;26.65;56.84
26635;BME280;14490;54.208;37.686;2022-07-24T08:29:08;98801.34;;;27.43;56.10
26635;BME280;14490;54.208;37.686;2022-07-24T08:31:36;98800.84;;;27.46;56.33
26635;BME280;14490;54.208;37.686;2022-07-24T08:34:05;98684.91;;;26.61;56.19
26635;BME280;14490;54.208;37.686;2022-07-24T08:36:32;98762.94;;;27.13;55.78
26635;BME280;14490;54.208;37.686;2022-07-24T08:39:00;98805.50;;;27.29;54.45
26635;BME280;14490;54.208;37.686;2022-07-24T08:41:30;98809.16;;;27.18;54.46
26635;BME280;14490;54.208;37.686;2022-07-24T08:44:01;98721.44;;;26.51;54.21
26635;BME280;14490;54.208;37.686;2022-07-24T08:46:31;98684.13;;;26.21;54.20
26635;BME280;14490;54.208;37.686;2022-07-24T08:48:59;98723.47;;;26.56;54.54
26635;BME280;14490;54.208;37.686;2022-07-24T08:51:32;98785.00;;;26.96;54.35
26635;BME280;14490;54.208;37.686;2022-07-24T08:54:00;98801.53;;;27.25;54.63
26635;BME280;14490;54.208;37.686;2022-07-24T08:56:29;98762.34;;;27.28;54.73
26635;BME280;14490;54.208;37.686;2022-07-24T08:58:59;98782.09;;;27.48;54.91
26635;BME280;14490;54.208;37.686;2022-07-24T09:01:27;98787.53;;;27.59;55.33
26635;BME280;14490;54.208;37.686;2022-07-24T09:03:55;98669.50;;;26.93;55.15
26635;BME280;14490;54.208;37.686;2022-07-24T09:06:23;98672.69;;;26.85;53.58
26635;BME280;14490;54.208;37.686;2022-07-24T09:09:00;98790.97;;;27.50;53.43
26635;BME280;14490;54.208;37.686;2022-07-24T09:11:28;98762.28;;;27.39;54.52
26635;BME280;14490;54.208;37.686;2022-07-24T09:14:00;98776.56;;;27.48;54.95
26635;BME280;14490;54.208;37.686;2022-07-24T09:16:45;98736.91;;;27.26;54.96
26635;BME280;14490;54.208;37.686;2022-07-24T09:19:15;98780.41;;;27.47;55.34
26635;BME280;14490;54.208;37.686;2022-07-24T09:21:43;98771.53;;;27.45;53.91
26635;BME280;14490;54.208;37.686;2022-07-24T09:24:17;98770.69;;;27.44;52.92
26635;BME280;14490;54.208;37.686;2022-07-24T09:26:48;98767.56;;;27.41;51.99
26635;BME280;14490;54.208;37.686;2022-07-24T09:29:17;98759.50;;;27.39;52.20
26635;BME280;14490;54.208;37.686;2022-07-24T09:31:56;98767.50;;;27.52;52.11
26635;BME280;14490;54.208;37.686;2022-07-24T09:34:26;98753.84;;;27.46;52.22
26635;BME280;14490;54.208;37.686;2022-07-24T09:36:59;98752.19;;;27.45;53.10
26635;BME280;14490;54.208;37.686;2022-07-24T09:39:32;98698.00;;;27.10;53.78
26635;BME280;14490;54.208;37.686;2022-07-24T09:42:01;98777.22;;;27.55;54.05
26635;BME280;14490;54.208;37.686;2022-07-24T09:44:30;98755.44;;;27.58;54.04
26635;BME280;14490;54.208;37.686;2022-07-24T09:47:01;98777.84;;;27.79;53.94
26635;BME280;14490;54.208;37.686;2022-07-24T09:49:31;98736.75;;;27.65;53.48
26635;BME280;14490;54.208;37.686;2022-07-24T09:52:12;98757.81;;;27.88;52.58
26635;BME280;14490;54.208;37.686;2022-07-24T09:54:45;98766.59;;;28.02;52.76
26635;BME280;14490;54.208;37.686;2022-07-24T09:57:22;98771.78;;;28.15;52.62
26635;BME280;14490;54.208;37.686;2022-07-24T09:59:53;98782.41;;;28.23;52.80
26635;BME280;14490;54.208;37.686;2022-07-24T10:02:23;98761.75;;;28.31;52.74
26635;BME280;14490;54.208;37.686;2022-07-24T10:04:52;98767.38;;;28.36;52.75
26635;BME280;14490;54.208;37.686;2022-07-24T10:07:24;98670.63;;;27.81;52.72
26635;BME280;14490;54.208;37.686;2022-07-24T10:09:55;98659.06;;;27.67;52.72
26635;BME280;14490;54.208;37.686;2022-07-24T10:12:26;98766.72;;;28.29;51.91
26635;BME280;14490;54.208;37.686;2022-07-24T10:14:59;98760.47;;;28.16;49.77
26635;BME280;14490;54.208;37.686;2022-07-24T10:17:52;98668.47;;;27.66;49.75
26635;BME280;14490;54.208;37.686;2022-07-24T10:20:38;98735.91;;;28.03;50.30
26635;BME280;14490;54.208;37.686;2022-07-24T10:23:07;98610.66;;;27.26;49.62
26635;BME280;14490;54.208;37.686;2022-07-24T10:25:53;98666.41;;;27.56;49.78
26635;BME280;14490;54.208;37.686;2022-07-24T10:28:39;98728.06;;;27.95;49.81
26635;BME280;14490;54.208;37.686;2022-07-24T10:31:10;98711.31;;;27.85;49.96
26635;BME280;14490;54.208;37.686;2022-07-24T10:33:41;98706.91;;;27.84;49.82
26635;BME280;14490;54.208;37.686;2022-07-24T10:36:17;98692.59;;;27.71;49.97
26635;BME280;14490;54.208;37.686;2022-07-24T10:38:55;98699.69;;;27.83;50.15
26635;BME280;14490;54.208;37.686;2022-07-24T10:41:26;98721.88;;;28.05;50.15
26635;BME280;14490;54.208;37.686;2022-07-24T10:44:14;98685.34;;;27.86;49.63
26635;BME280;14490;54.208;37.686;2022-07-24T10:47:03;98728.81;;;28.07;49.57
26635;BME280;14490;54.208;37.686;2022-07-24T10:49:46;98678.97;;;27.86;49.73
26635;BME280;14490;54.208;37.686;2022-07-24T10:52:24;98718.91;;;28.11;49.55
26635;BME280;14490;54.208;37.686;2022-07-24T10:55:30;98724.50;;;28.16;50.01
26635;BME280;14490;54.208;37.686;2022-07-24T10:58:03;98715.94;;;28.18;49.86
26635;BME280;14490;54.208;37.686;2022-07-24T11:00:34;98714.50;;;28.15;49.88
26635;BME280;14490;54.208;37.686;2022-07-24T11:03:04;98707.91;;;28.16;49.80
26635;BME280;14490;54.208;37.686;2022-07-24T11:05:33;98686.47;;;28.07;49.58
26635;BME280;14490;54.208;37.686;2022-07-24T11:08:26;98711.88;;;28.26;49.39
26635;BME280;14490;54.208;37.686;2022-07-24T11:11:11;98687.22;;;28.02;50.13
26635;BME280;14490;54.208;37.686;2022-07-24T11:13:52;98714.97;;;28.07;49.62
26635;BME280;14490;54.208;37.686;2022-07-24T11:16:31;98605.13;;;27.43;49.11
26635;BME280;14490;54.208;37.686;2022-07-24T11:19:25;98704.56;;;28.14;47.79
26635;BME280;14490;54.208;37.686;2022-07-24T11:22:06;98706.03;;;28.22;48.60
26635;BME280;14490;54.208;37.686;2022-07-24T11:25:06;98693.34;;;28.26;49.34
26635;BME280;14490;54.208;37.686;2022-07-24T11:27:46;98618.13;;;27.86;49.82
26635;BME280;14490;54.208;37.686;2022-07-24T11:30:18;98565.16;;;27.50;50.82
26635;BME280;14490;54.208;37.686;2022-07-24T11:32:47;98521.91;;;27.23;50.78
26635;BME280;14490;54.208;37.686;2022-07-24T11:35:14;98517.56;;;27.27;50.60
26635;BME280;14490;54.208;37.686;2022-07-24T11:37:43;98688.72;;;28.32;50.48
26635;BME280;14490;54.208;37.686;2022-07-24T11:40:15;98681.50;;;28.31;50.41
26635;BME280;14490;54.208;37.686;2022-07-24T11:42:44;98686.16;;;28.52;50.22
26635;BME280;14490;54.208;37.686;2022-07-24T11:45:11;98676.72;;;28.48;50.59
26635;BME280;14490;54.208;37.686;2022-07-24T11:47:41;98697.53;;;28.55;50.19
26635;BME280;14490;54.208;37.686;2022-07-24T11:50:09;98658.78;;;28.29;50.05
26635;BME280;14490;54.208;37.686;2022-07-24T11:52:38;98684.56;;;28.34;50.33
26635;BME280;14490;54.208;37.686;2022-07-24T11:55:08;98607.44;;;27.73;49.55
26635;BME280;14490;54.208;37.686;2022-07-24T11:57:40;98647.84;;;27.95;49.48
26635;BME280;14490;54.208;37.686;2022-07-24T12:00:10;98658.97;;;28.00;49.24
26635;BME280;14490;54.208;37.686;2022-07-24T12:02:45;98668.31;;;28.16;49.35
26635;BME280;14490;54.208;37.686;2022-07-24T12:05:15;98635.59;;;27.91;49.76
26635;BME280;14490;54.208;37.686;2022-07-24T12:07:50;98652.44;;;28.06;50.07
26635;BME280;14490;54.208;37.686;2022-07-24T12:10:19;98620.66;;;27.87;50.13
26635;BME280;14490;54.208;37.686;2022-07-24T12:12:49;98559.94;;;27.54;50.06
26635;BME280;14490;54.208;37.686;2022-07-24T12:15:21;98596.66;;;27.71;50.22
26635;BME280;14490;54.208;37.686;2022-07-24T12:17:56;98634.53;;;27.92;50.01
26635;BME280;14490;54.208;37.686;2022-07-24T12:20:27;98587.50;;;27.71;49.57
26635;BME280;14490;54.208;37.686;2022-07-24T12:22:56;98602.22;;;27.76;49.80
26635;BME280;14490;54.208;37.686;2022-07-24T12:25:26;98611.66;;;27.75;50.24
26635;BME280;14490;54.208;37.686;2022-07-24T12:28:02;98623.47;;;27.92;49.92
26635;BME280;14490;54.208;37.686;2022-07-24T12:30:32;98621.91;;;28.01;49.91
26635;BME280;14490;54.208;37.686;2022-07-24T12:33:04;98617.56;;;28.05;49.69
26635;BME280;14490;54.208;37.686;2022-07-24T12:35:35;98601.97;;;27.99;49.39
26635;BME280;14490;54.208;37.686;2022-07-24T12:38:23;98595.94;;;28.02;49.03
26635;BME280;14490;54.208;37.686;2022-07-24T12:41:01;98610.78;;;28.18;48.89
26635;BME280;14490;54.208;37.686;2022-07-24T12:43:31;98608.94;;;28.24;49.02
26635;BME280;14490;54.208;37.686;2022-07-24T12:46:06;98606.25;;;28.34;49.24
26635;BME280;14490;54.208;37.686;2022-07-24T12:48:36;98594.72;;;28.42;49.75
26635;BME280;14490;54.208;37.686;2022-07-24T12:51:06;98504.38;;;27.77;49.30
26635;BME280;14490;54.208;37.686;2022-07-24T12:53:38;98599.22;;;28.48;49.48
26635;BME280;14490;54.208;37.686;2022-07-24T12:56:09;98600.81;;;28.44;49.62
26635;BME280;14490;54.208;37.686;2022-07-24T12:58:55;98570.19;;;28.24;49.86
26635;BME280;14490;54.208;37.686;2022-07-24T13:01:27;98464.84;;;27.55;49.87
26635;BME280;14490;54.208;37.686;2022-07-24T13:04:11;98597.50;;;28.42;49.50
26635;BME280;14490;54.208;37.686;2022-07-24T13:06:41;98557.47;;;28.28;49.75